sensor_id;sensor_type;location;lat;lon;timestamp;P1;durP1;ratioP1;P2;durP2;ratioP2
53879;SDS011;39791;53.184;5.486;2023-04-25T00:01:59;150.30;;;139.43;;
53879;SDS011;39791;53.184;5.486;2023-04-25T00:04:25;103.10;;;94.30;;
53879;SDS011;39791;53.184;5.486;2023-04-25T00:06:53;123.78;;;113.30;;
53879;SDS011;39791;53.184;5.486;2023-04-25T00:09:19;175.38;;;162.50;;
53879;SDS011;39791;53.184;5.486;2023-04-25T00:11:44;82.20;;;73.95;;
53879;SDS011;39791;53.184;5.486;2023-04-25T00:14:10;79.32;;;71.90;;
53879;SDS011;39791;53.184;5.486;2023-04-25T00:16:35;78.75;;;70.20;;
53879;SDS011;39791;53.184;5.486;2023-04-25T00:19:01;54.78;;;48.45;;
53879;SDS011;39791;53.184;5.486;2023-04-25T00:21:28;155.57;;;144.23;;
53879;SDS011;39791;53.184;5.486;2023-04-25T00:23:54;69.50;;;63.03;;
53879;SDS011;39791;53.184;5.486;2023-04-25T00:26:20;122.90;;;113.85;;
53879;SDS011;39791;53.184;5.486;2023-04-25T00:28:46;119.65;;;110.45;;
53879;SDS011;39791;53.184;5.486;2023-04-25T00:31:12;165.13;;;152.88;;
53879;SDS011;39791;53.184;5.486;2023-04-25T00:33:38;73.13;;;65.95;;
53879;SDS011;39791;53.184;5.486;2023-04-25T00:36:04;195.63;;;182.18;;
53879;SDS011;39791;53.184;5.486;2023-04-25T00:38:30;66.93;;;59.85;;
53879;SDS011;39791;53.184;5.486;2023-04-25T00:40:56;68.78;;;62.25;;
53879;SDS011;39791;53.184;5.486;2023-04-25T00:43:22;115.20;;;106.50;;
53879;SDS011;39791;53.184;5.486;2023-04-25T00:45:52;72.28;;;65.97;;
53879;SDS011;39791;53.184;5.486;2023-04-25T00:48:18;85.07;;;78.47;;
53879;SDS011;39791;53.184;5.486;2023-04-25T00:50:49;68.28;;;62.28;;
53879;SDS011;39791;53.184;5.486;2023-04-25T00:53:22;95.28;;;87.85;;
53879;SDS011;39791;53.184;5.486;2023-04-25T00:55:49;53.50;;;48.65;;
53879;SDS011;39791;53.184;5.486;2023-04-25T00:58:18;49.58;;;45.28;;
53879;SDS011;39791;53.184;5.486;2023-04-25T01:00:45;79.68;;;73.18;;
53879;SDS011;39791;53.184;5.486;2023-04-25T01:03:12;57.20;;;52.50;;
53879;SDS011;39791;53.184;5.486;2023-04-25T01:05:38;65.30;;;59.90;;
53879;SDS011;39791;53.184;5.486;2023-04-25T01:08:06;99.82;;;92.78;;
53879;SDS011;39791;53.184;5.486;2023-04-25T01:10:32;65.18;;;59.67;;
53879;SDS011;39791;53.184;5.486;2023-04-25T01:12:57;90.43;;;83.43;;
53879;SDS011;39791;53.184;5.486;2023-04-25T01:15:23;98.88;;;91.47;;
53879;SDS011;39791;53.184;5.486;2023-04-25T01:17:49;68.35;;;62.40;;
53879;SDS011;39791;53.184;5.486;2023-04-25T01:20:15;91.45;;;84.47;;
53879;SDS011;39791;53.184;5.486;2023-04-25T01:22:41;52.75;;;48.15;;
53879;SDS011;39791;53.184;5.486;2023-04-25T01:25:08;112.07;;;103.75;;
53879;SDS011;39791;53.184;5.486;2023-04-25T01:27:35;109.25;;;99.95;;
53879;SDS011;39791;53.184;5.486;2023-04-25T01:30:01;113.22;;;104.85;;
53879;SDS011;39791;53.184;5.486;2023-04-25T01:32:27;79.90;;;72.63;;
53879;SDS011;39791;53.184;5.486;2023-04-25T01:34:53;64.97;;;60.03;;
53879;SDS011;39791;53.184;5.486;2023-04-25T01:37:18;64.95;;;59.28;;
53879;SDS011;39791;53.184;5.486;2023-04-25T01:39:44;118.50;;;110.18;;
53879;SDS011;39791;53.184;5.486;2023-04-25T01:42:10;131.93;;;123.07;;
53879;SDS011;39791;53.184;5.486;2023-04-25T01:44:35;72.03;;;65.53;;
53879;SDS011;39791;53.184;5.486;2023-04-25T01:47:01;56.65;;;52.10;;
53879;SDS011;39791;53.184;5.486;2023-04-25T01:49:27;98.15;;;89.95;;
53879;SDS011;39791;53.184;5.486;2023-04-25T01:51:52;65.95;;;60.80;;
53879;SDS011;39791;53.184;5.486;2023-04-25T01:54:18;91.63;;;84.70;;
53879;SDS011;39791;53.184;5.486;2023-04-25T01:56:49;82.07;;;75.35;;
53879;SDS011;39791;53.184;5.486;2023-04-25T01:59:16;122.22;;;114.30;;
53879;SDS011;39791;53.184;5.486;2023-04-25T02:01:43;142.18;;;132.70;;
53879;SDS011;39791;53.184;5.486;2023-04-25T02:04:08;119.95;;;111.60;;
53879;SDS011;39791;53.184;5.486;2023-04-25T02:06:34;62.92;;;57.67;;
53879;SDS011;39791;53.184;5.486;2023-04-25T02:08:59;51.45;;;47.45;;
53879;SDS011;39791;53.184;5.486;2023-04-25T02:11:25;50.20;;;45.83;;
53879;SDS011;39791;53.184;5.486;2023-04-25T02:13:51;58.38;;;53.88;;
53879;SDS011;39791;53.184;5.486;2023-04-25T02:16:16;55.63;;;51.17;;
53879;SDS011;39791;53.184;5.486;2023-04-25T02:18:42;102.00;;;94.93;;
53879;SDS011;39791;53.184;5.486;2023-04-25T02:21:10;101.88;;;93.70;;
53879;SDS011;39791;53.184;5.486;2023-04-25T02:23:36;69.15;;;62.70;;
53879;SDS011;39791;53.184;5.486;2023-04-25T02:26:02;61.47;;;56.42;;
53879;SDS011;39791;53.184;5.486;2023-04-25T02:28:28;121.72;;;112.50;;
53879;SDS011;39791;53.184;5.486;2023-04-25T02:30:53;81.07;;;74.88;;
53879;SDS011;39791;53.184;5.486;2023-04-25T02:33:19;82.75;;;76.25;;
53879;SDS011;39791;53.184;5.486;2023-04-25T02:35:46;47.17;;;42.60;;
53879;SDS011;39791;53.184;5.486;2023-04-25T02:38:11;90.60;;;83.35;;
53879;SDS011;39791;53.184;5.486;2023-04-25T02:40:37;67.38;;;62.10;;
53879;SDS011;39791;53.184;5.486;2023-04-25T02:43:03;58.30;;;52.20;;
53879;SDS011;39791;53.184;5.486;2023-04-25T02:45:28;67.95;;;62.35;;
53879;SDS011;39791;53.184;5.486;2023-04-25T02:47:54;57.53;;;52.80;;
53879;SDS011;39791;53.184;5.486;2023-04-25T02:50:19;93.72;;;86.55;;
53879;SDS011;39791;53.184;5.486;2023-04-25T02:52:45;70.05;;;64.82;;
53879;SDS011;39791;53.184;5.486;2023-04-25T02:55:11;109.43;;;101.22;;
53879;SDS011;39791;53.184;5.486;2023-04-25T02:57:38;61.80;;;56.53;;
53879;SDS011;39791;53.184;5.486;2023-04-25T03:00:03;193.93;;;181.43;;
53879;SDS011;39791;53.184;5.486;2023-04-25T03:02:30;61.78;;;56.22;;
53879;SDS011;39791;53.184;5.486;2023-04-25T03:04:55;112.05;;;103.80;;
53879;SDS011;39791;53.184;5.486;2023-04-25T03:07:21;68.35;;;62.88;;
53879;SDS011;39791;53.184;5.486;2023-04-25T03:09:47;43.97;;;39.17;;
53879;SDS011;39791;53.184;5.486;2023-04-25T03:12:12;119.63;;;111.95;;
53879;SDS011;39791;53.184;5.486;2023-04-25T03:14:38;57.00;;;51.85;;
53879;SDS011;39791;53.184;5.486;2023-04-25T03:17:03;95.30;;;88.03;;
53879;SDS011;39791;53.184;5.486;2023-04-25T03:19:29;102.97;;;94.88;;
53879;SDS011;39791;53.184;5.486;2023-04-25T03:21:55;46.03;;;42.17;;
53879;SDS011;39791;53.184;5.486;2023-04-25T03:24:21;98.78;;;91.38;;
53879;SDS011;39791;53.184;5.486;2023-04-25T03:26:46;52.35;;;48.03;;
53879;SDS011;39791;53.184;5.486;2023-04-25T03:29:12;84.82;;;78.35;;
53879;SDS011;39791;53.184;5.486;2023-04-25T03:31:38;67.75;;;62.50;;
53879;SDS011;39791;53.184;5.486;2023-04-25T03:34:03;100.80;;;93.35;;
53879;SDS011;39791;53.184;5.486;2023-04-25T03:36:29;62.97;;;57.13;;
53879;SDS011;39791;53.184;5.486;2023-04-25T03:38:54;67.40;;;61.28;;
53879;SDS011;39791;53.184;5.486;2023-04-25T03:41:20;151.20;;;141.15;;
53879;SDS011;39791;53.184;5.486;2023-04-25T03:43:46;61.65;;;56.60;;
53879;SDS011;39791;53.184;5.486;2023-04-25T03:46:11;46.40;;;42.60;;
53879;SDS011;39791;53.184;5.486;2023-04-25T03:48:37;52.90;;;48.75;;
53879;SDS011;39791;53.184;5.486;2023-04-25T03:51:02;50.85;;;46.38;;
53879;SDS011;39791;53.184;5.486;2023-04-25T03:53:28;118.97;;;110.70;;
53879;SDS011;39791;53.184;5.486;2023-04-25T03:55:54;88.97;;;81.82;;
53879;SDS011;39791;53.184;5.486;2023-04-25T03:58:19;65.13;;;60.35;;
53879;SDS011;39791;53.184;5.486;2023-04-25T04:00:45;106.15;;;99.15;;
53879;SDS011;39791;53.184;5.486;2023-04-25T04:03:10;133.85;;;124.18;;
53879;SDS011;39791;53.184;5.486;2023-04-25T04:05:36;126.53;;;116.63;;
53879;SDS011;39791;53.184;5.486;2023-04-25T04:08:02;55.63;;;50.90;;
53879;SDS011;39791;53.184;5.486;2023-04-25T04:10:28;195.30;;;182.95;;
53879;SDS011;39791;53.184;5.486;2023-04-25T04:12:53;70.55;;;64.97;;
53879;SDS011;39791;53.184;5.486;2023-04-25T04:15:19;127.70;;;118.88;;
53879;SDS011;39791;53.184;5.486;2023-04-25T04:17:44;119.38;;;110.63;;
53879;SDS011;39791;53.184;5.486;2023-04-25T04:20:11;77.55;;;71.07;;
53879;SDS011;39791;53.184;5.486;2023-04-25T04:22:37;47.67;;;43.63;;
53879;SDS011;39791;53.184;5.486;2023-04-25T04:25:03;87.05;;;81.00;;
53879;SDS011;39791;53.184;5.486;2023-04-25T04:27:30;161.98;;;151.50;;
53879;SDS011;39791;53.184;5.486;2023-04-25T04:29:57;89.82;;;83.30;;
53879;SDS011;39791;53.184;5.486;2023-04-25T04:32:22;46.50;;;42.40;;
53879;SDS011;39791;53.184;5.486;2023-04-25T04:34:48;83.65;;;77.75;;
53879;SDS011;39791;53.184;5.486;2023-04-25T04:37:14;118.65;;;111.40;;
53879;SDS011;39791;53.184;5.486;2023-04-25T04:39:40;107.40;;;100.38;;
53879;SDS011;39791;53.184;5.486;2023-04-25T04:42:05;52.78;;;48.53;;
53879;SDS011;39791;53.184;5.486;2023-04-25T04:44:31;154.40;;;144.63;;
53879;SDS011;39791;53.184;5.486;2023-04-25T04:46:57;188.52;;;177.25;;
53879;SDS011;39791;53.184;5.486;2023-04-25T04:49:23;148.27;;;138.30;;
53879;SDS011;39791;53.184;5.486;2023-04-25T04:51:49;93.00;;;86.57;;
53879;SDS011;39791;53.184;5.486;2023-04-25T04:54:15;175.35;;;163.43;;
53879;SDS011;39791;53.184;5.486;2023-04-25T04:56:41;162.10;;;151.93;;
53879;SDS011;39791;53.184;5.486;2023-04-25T04:59:07;55.53;;;51.35;;
53879;SDS011;39791;53.184;5.486;2023-04-25T05:01:32;54.10;;;49.78;;
53879;SDS011;39791;53.184;5.486;2023-04-25T05:04:00;61.97;;;57.08;;
53879;SDS011;39791;53.184;5.486;2023-04-25T05:06:26;118.60;;;110.38;;
53879;SDS011;39791;53.184;5.486;2023-04-25T05:08:54;100.05;;;93.22;;
53879;SDS011;39791;53.184;5.486;2023-04-25T05:11:19;102.63;;;95.80;;
53879;SDS011;39791;53.184;5.486;2023-04-25T05:13:46;91.93;;;85.03;;
53879;SDS011;39791;53.184;5.486;2023-04-25T05:16:12;89.35;;;82.97;;
53879;SDS011;39791;53.184;5.486;2023-04-25T05:18:38;51.22;;;46.83;;
53879;SDS011;39791;53.184;5.486;2023-04-25T05:21:04;110.32;;;102.00;;
53879;SDS011;39791;53.184;5.486;2023-04-25T05:23:30;122.95;;;114.88;;
53879;SDS011;39791;53.184;5.486;2023-04-25T05:25:57;89.40;;;82.85;;
53879;SDS011;39791;53.184;5.486;2023-04-25T05:28:23;100.80;;;93.85;;
53879;SDS011;39791;53.184;5.486;2023-04-25T05:30:49;52.17;;;47.90;;
53879;SDS011;39791;53.184;5.486;2023-04-25T05:33:15;64.68;;;59.67;;
53879;SDS011;39791;53.184;5.486;2023-04-25T05:35:41;97.38;;;90.07;;
53879;SDS011;39791;53.184;5.486;2023-04-25T05:38:07;143.85;;;134.25;;
53879;SDS011;39791;53.184;5.486;2023-04-25T05:40:32;111.75;;;104.05;;
53879;SDS011;39791;53.184;5.486;2023-04-25T05:42:58;88.63;;;82.38;;
53879;SDS011;39791;53.184;5.486;2023-04-25T05:45:23;104.07;;;96.38;;
53879;SDS011;39791;53.184;5.486;2023-04-25T05:47:49;97.43;;;90.32;;
53879;SDS011;39791;53.184;5.486;2023-04-25T05:50:15;147.68;;;138.10;;
53879;SDS011;39791;53.184;5.486;2023-04-25T05:52:40;88.97;;;82.40;;
53879;SDS011;39791;53.184;5.486;2023-04-25T05:55:06;81.20;;;74.50;;
53879;SDS011;39791;53.184;5.486;2023-04-25T05:57:32;101.43;;;94.57;;
53879;SDS011;39791;53.184;5.486;2023-04-25T05:59:57;107.50;;;99.57;;
53879;SDS011;39791;53.184;5.486;2023-04-25T06:02:23;64.45;;;59.20;;
53879;SDS011;39791;53.184;5.486;2023-04-25T06:04:49;86.63;;;79.65;;
53879;SDS011;39791;53.184;5.486;2023-04-25T06:07:16;66.30;;;59.33;;
53879;SDS011;39791;53.184;5.486;2023-04-25T06:09:42;124.93;;;115.53;;
53879;SDS011;39791;53.184;5.486;2023-04-25T06:12:08;71.05;;;66.00;;
53879;SDS011;39791;53.184;5.486;2023-04-25T06:14:34;57.97;;;53.67;;
53879;SDS011;39791;53.184;5.486;2023-04-25T06:16:59;97.57;;;90.70;;
53879;SDS011;39791;53.184;5.486;2023-04-25T06:19:31;58.78;;;54.13;;
53879;SDS011;39791;53.184;5.486;2023-04-25T06:21:57;115.97;;;108.32;;
53879;SDS011;39791;53.184;5.486;2023-04-25T06:24:23;136.07;;;127.28;;
53879;SDS011;39791;53.184;5.486;2023-04-25T06:26:49;58.00;;;52.58;;
53879;SDS011;39791;53.184;5.486;2023-04-25T06:29:14;48.28;;;44.72;;
53879;SDS011;39791;53.184;5.486;2023-04-25T06:31:40;62.28;;;57.50;;
53879;SDS011;39791;53.184;5.486;2023-04-25T06:34:06;196.15;;;183.73;;
53879;SDS011;39791;53.184;5.486;2023-04-25T06:36:31;194.55;;;182.23;;
53879;SDS011;39791;53.184;5.486;2023-04-25T06:38:57;190.05;;;178.00;;
53879;SDS011;39791;53.184;5.486;2023-04-25T06:41:22;188.82;;;176.18;;
53879;SDS011;39791;53.184;5.486;2023-04-25T06:43:48;78.07;;;71.45;;
53879;SDS011;39791;53.184;5.486;2023-04-25T06:46:14;186.02;;;174.13;;
53879;SDS011;39791;53.184;5.486;2023-04-25T06:48:39;186.38;;;174.48;;
53879;SDS011;39791;53.184;5.486;2023-04-25T06:51:05;62.20;;;57.70;;
53879;SDS011;39791;53.184;5.486;2023-04-25T06:53:30;204.55;;;191.68;;
53879;SDS011;39791;53.184;5.486;2023-04-25T06:55:56;53.92;;;49.25;;
53879;SDS011;39791;53.184;5.486;2023-04-25T06:58:24;44.90;;;40.97;;
53879;SDS011;39791;53.184;5.486;2023-04-25T07:00:51;59.80;;;55.58;;
53879;SDS011;39791;53.184;5.486;2023-04-25T07:03:16;77.82;;;71.63;;
53879;SDS011;39791;53.184;5.486;2023-04-25T07:05:42;104.53;;;97.07;;
53879;SDS011;39791;53.184;5.486;2023-04-25T07:08:07;110.25;;;102.10;;
53879;SDS011;39791;53.184;5.486;2023-04-25T07:10:33;125.72;;;117.13;;
53879;SDS011;39791;53.184;5.486;2023-04-25T07:12:59;90.03;;;83.78;;
53879;SDS011;39791;53.184;5.486;2023-04-25T07:15:25;46.35;;;42.38;;
53879;SDS011;39791;53.184;5.486;2023-04-25T07:17:51;137.60;;;128.75;;
53879;SDS011;39791;53.184;5.486;2023-04-25T07:20:16;67.13;;;62.00;;
53879;SDS011;39791;53.184;5.486;2023-04-25T07:22:42;75.25;;;69.95;;
53879;SDS011;39791;53.184;5.486;2023-04-25T07:25:08;83.88;;;77.53;;
53879;SDS011;39791;53.184;5.486;2023-04-25T07:27:34;123.13;;;115.15;;
53879;SDS011;39791;53.184;5.486;2023-04-25T07:29:59;126.70;;;118.55;;
53879;SDS011;39791;53.184;5.486;2023-04-25T07:32:25;157.93;;;148.20;;
53879;SDS011;39791;53.184;5.486;2023-04-25T07:34:51;143.02;;;133.40;;
53879;SDS011;39791;53.184;5.486;2023-04-25T07:37:17;104.70;;;97.55;;
53879;SDS011;39791;53.184;5.486;2023-04-25T07:39:44;95.25;;;88.60;;
53879;SDS011;39791;53.184;5.486;2023-04-25T07:42:11;96.05;;;89.68;;
53879;SDS011;39791;53.184;5.486;2023-04-25T07:44:37;69.40;;;64.15;;
53879;SDS011;39791;53.184;5.486;2023-04-25T07:47:07;126.45;;;118.25;;
53879;SDS011;39791;53.184;5.486;2023-04-25T07:49:34;91.00;;;84.07;;
53879;SDS011;39791;53.184;5.486;2023-04-25T07:52:00;80.18;;;73.75;;
53879;SDS011;39791;53.184;5.486;2023-04-25T07:54:26;50.28;;;45.50;;
53879;SDS011;39791;53.184;5.486;2023-04-25T07:56:52;111.38;;;103.82;;
53879;SDS011;39791;53.184;5.486;2023-04-25T07:59:18;144.40;;;134.77;;
53879;SDS011;39791;53.184;5.486;2023-04-25T08:01:43;97.97;;;90.88;;
53879;SDS011;39791;53.184;5.486;2023-04-25T08:04:09;73.10;;;67.55;;
53879;SDS011;39791;53.184;5.486;2023-04-25T08:06:35;151.65;;;141.50;;
53879;SDS011;39791;53.184;5.486;2023-04-25T08:09:01;92.70;;;86.03;;
53879;SDS011;39791;53.184;5.486;2023-04-25T08:11:27;115.97;;;108.25;;
53879;SDS011;39791;53.184;5.486;2023-04-25T08:13:53;163.10;;;152.48;;
53879;SDS011;39791;53.184;5.486;2023-04-25T08:16:19;115.22;;;107.30;;
53879;SDS011;39791;53.184;5.486;2023-04-25T08:18:44;133.48;;;123.18;;
53879;SDS011;39791;53.184;5.486;2023-04-25T08:21:10;91.60;;;85.15;;
53879;SDS011;39791;53.184;5.486;2023-04-25T08:23:37;106.85;;;99.30;;
53879;SDS011;39791;53.184;5.486;2023-04-25T08:26:03;58.90;;;54.30;;
53879;SDS011;39791;53.184;5.486;2023-04-25T08:28:29;80.07;;;74.15;;
53879;SDS011;39791;53.184;5.486;2023-04-25T08:30:55;101.60;;;94.47;;
53879;SDS011;39791;53.184;5.486;2023-04-25T08:33:21;53.03;;;48.75;;
53879;SDS011;39791;53.184;5.486;2023-04-25T08:35:46;77.45;;;71.55;;
53879;SDS011;39791;53.184;5.486;2023-04-25T08:38:12;85.95;;;79.70;;
53879;SDS011;39791;53.184;5.486;2023-04-25T08:40:38;49.05;;;44.65;;
53879;SDS011;39791;53.184;5.486;2023-04-25T08:43:05;132.82;;;124.00;;
53879;SDS011;39791;53.184;5.486;2023-04-25T08:45:39;51.70;;;46.80;;
53879;SDS011;39791;53.184;5.486;2023-04-25T08:48:13;155.73;;;145.57;;
53879;SDS011;39791;53.184;5.486;2023-04-25T08:50:43;166.07;;;155.65;;
53879;SDS011;39791;53.184;5.486;2023-04-25T08:53:10;112.07;;;104.28;;
53879;SDS011;39791;53.184;5.486;2023-04-25T08:55:43;171.20;;;159.07;;
53879;SDS011;39791;53.184;5.486;2023-04-25T08:58:10;62.15;;;57.33;;
53879;SDS011;39791;53.184;5.486;2023-04-25T09:00:36;63.70;;;58.88;;
53879;SDS011;39791;53.184;5.486;2023-04-25T09:03:02;177.32;;;165.85;;
53879;SDS011;39791;53.184;5.486;2023-04-25T09:05:28;110.80;;;102.90;;
53879;SDS011;39791;53.184;5.486;2023-04-25T09:07:54;78.65;;;72.60;;
53879;SDS011;39791;53.184;5.486;2023-04-25T09:10:21;166.95;;;155.98;;
53879;SDS011;39791;53.184;5.486;2023-04-25T09:13:06;79.43;;;73.72;;
53879;SDS011;39791;53.184;5.486;2023-04-25T09:15:47;88.63;;;82.45;;
53879;SDS011;39791;53.184;5.486;2023-04-25T09:18:21;60.22;;;55.53;;
53879;SDS011;39791;53.184;5.486;2023-04-25T09:20:48;110.90;;;102.85;;
53879;SDS011;39791;53.184;5.486;2023-04-25T09:23:14;97.45;;;90.75;;
53879;SDS011;39791;53.184;5.486;2023-04-25T09:25:40;133.13;;;124.50;;
53879;SDS011;39791;53.184;5.486;2023-04-25T09:28:08;127.35;;;118.30;;
53879;SDS011;39791;53.184;5.486;2023-04-25T09:30:34;93.88;;;87.40;;
53879;SDS011;39791;53.184;5.486;2023-04-25T09:33:05;95.03;;;88.55;;
53879;SDS011;39791;53.184;5.486;2023-04-25T09:35:38;58.70;;;53.40;;
53879;SDS011;39791;53.184;5.486;2023-04-25T09:38:09;99.72;;;93.05;;
53879;SDS011;39791;53.184;5.486;2023-04-25T09:40:40;43.25;;;39.83;;
53879;SDS011;39791;53.184;5.486;2023-04-25T09:43:12;132.10;;;123.10;;
53879;SDS011;39791;53.184;5.486;2023-04-25T09:45:43;101.18;;;94.20;;
53879;SDS011;39791;53.184;5.486;2023-04-25T09:48:11;149.98;;;140.18;;
53879;SDS011;39791;53.184;5.486;2023-04-25T09:50:37;85.22;;;79.05;;
53879;SDS011;39791;53.184;5.486;2023-04-25T09:53:04;117.78;;;109.50;;
53879;SDS011;39791;53.184;5.486;2023-04-25T09:55:34;161.70;;;150.40;;
53879;SDS011;39791;53.184;5.486;2023-04-25T09:58:00;130.45;;;121.57;;
53879;SDS011;39791;53.184;5.486;2023-04-25T10:00:30;126.40;;;118.05;;
53879;SDS011;39791;53.184;5.486;2023-04-25T10:02:57;101.85;;;94.50;;
53879;SDS011;39791;53.184;5.486;2023-04-25T10:05:29;130.07;;;121.07;;
53879;SDS011;39791;53.184;5.486;2023-04-25T10:07:57;135.10;;;125.57;;
53879;SDS011;39791;53.184;5.486;2023-04-25T10:10:26;88.57;;;82.03;;
53879;SDS011;39791;53.184;5.486;2023-04-25T10:12:54;112.28;;;103.95;;
53879;SDS011;39791;53.184;5.486;2023-04-25T10:15:20;113.82;;;105.22;;
53879;SDS011;39791;53.184;5.486;2023-04-25T10:17:47;211.95;;;198.13;;
53879;SDS011;39791;53.184;5.486;2023-04-25T10:20:14;233.90;;;218.95;;
53879;SDS011;39791;53.184;5.486;2023-04-25T10:22:44;229.52;;;214.68;;
53879;SDS011;39791;53.184;5.486;2023-04-25T10:25:11;177.13;;;165.75;;
53879;SDS011;39791;53.184;5.486;2023-04-25T10:27:38;213.68;;;200.20;;
53879;SDS011;39791;53.184;5.486;2023-04-25T10:30:08;222.32;;;207.93;;
53879;SDS011;39791;53.184;5.486;2023-04-25T10:32:39;202.95;;;190.05;;
53879;SDS011;39791;53.184;5.486;2023-04-25T10:37:58;183.80;;;172.27;;
53879;SDS011;39791;53.184;5.486;2023-04-25T10:40:31;168.98;;;157.35;;
53879;SDS011;39791;53.184;5.486;2023-04-25T10:43:34;247.23;;;231.63;;
53879;SDS011;39791;53.184;5.486;2023-04-25T10:45:59;135.93;;;126.30;;
53879;SDS011;39791;53.184;5.486;2023-04-25T10:48:29;270.98;;;253.10;;
53879;SDS011;39791;53.184;5.486;2023-04-25T10:51:11;122.10;;;112.70;;
53879;SDS011;39791;53.184;5.486;2023-04-25T10:53:43;234.27;;;217.88;;
53879;SDS011;39791;53.184;5.486;2023-04-25T10:56:19;251.75;;;235.40;;
53879;SDS011;39791;53.184;5.486;2023-04-25T10:58:46;226.75;;;212.52;;
53879;SDS011;39791;53.184;5.486;2023-04-25T11:01:13;245.05;;;229.05;;
53879;SDS011;39791;53.184;5.486;2023-04-25T11:03:40;250.80;;;234.52;;
53879;SDS011;39791;53.184;5.486;2023-04-25T11:06:11;220.35;;;206.10;;
53879;SDS011;39791;53.184;5.486;2023-04-25T11:08:48;249.00;;;232.38;;
53879;SDS011;39791;53.184;5.486;2023-04-25T11:11:16;215.55;;;201.60;;
53879;SDS011;39791;53.184;5.486;2023-04-25T11:13:42;230.93;;;216.45;;
53879;SDS011;39791;53.184;5.486;2023-04-25T11:16:08;199.63;;;186.32;;
53879;SDS011;39791;53.184;5.486;2023-04-25T11:18:34;215.80;;;201.43;;
53879;SDS011;39791;53.184;5.486;2023-04-25T11:21:00;235.10;;;220.38;;
53879;SDS011;39791;53.184;5.486;2023-04-25T11:23:27;191.10;;;177.90;;
53879;SDS011;39791;53.184;5.486;2023-04-25T11:25:55;191.55;;;178.07;;
53879;SDS011;39791;53.184;5.486;2023-04-25T11:28:21;208.40;;;195.07;;
53879;SDS011;39791;53.184;5.486;2023-04-25T11:30:48;195.68;;;182.93;;
53879;SDS011;39791;53.184;5.486;2023-04-25T11:33:17;269.95;;;252.95;;
53879;SDS011;39791;53.184;5.486;2023-04-25T11:35:43;213.20;;;199.60;;
53879;SDS011;39791;53.184;5.486;2023-04-25T11:38:09;179.85;;;168.13;;
53879;SDS011;39791;53.184;5.486;2023-04-25T11:40:35;214.95;;;201.52;;
53879;SDS011;39791;53.184;5.486;2023-04-25T11:43:01;217.15;;;203.35;;
53879;SDS011;39791;53.184;5.486;2023-04-25T11:45:27;256.48;;;239.88;;
53879;SDS011;39791;53.184;5.486;2023-04-25T11:47:54;204.73;;;191.05;;
53879;SDS011;39791;53.184;5.486;2023-04-25T11:50:19;220.45;;;206.55;;
53879;SDS011;39791;53.184;5.486;2023-04-25T11:52:45;167.60;;;156.57;;
53879;SDS011;39791;53.184;5.486;2023-04-25T11:55:13;166.07;;;155.15;;
53879;SDS011;39791;53.184;5.486;2023-04-25T11:57:40;201.80;;;188.95;;
53879;SDS011;39791;53.184;5.486;2023-04-25T12:00:11;208.55;;;195.80;;
53879;SDS011;39791;53.184;5.486;2023-04-25T12:02:45;216.13;;;202.38;;
53879;SDS011;39791;53.184;5.486;2023-04-25T12:05:13;188.57;;;177.18;;
53879;SDS011;39791;53.184;5.486;2023-04-25T12:07:40;251.77;;;236.43;;
53879;SDS011;39791;53.184;5.486;2023-04-25T12:10:08;220.35;;;206.55;;
53879;SDS011;39791;53.184;5.486;2023-04-25T12:12:35;261.25;;;244.38;;
53879;SDS011;39791;53.184;5.486;2023-04-25T12:15:08;259.10;;;242.77;;
53879;SDS011;39791;53.184;5.486;2023-04-25T12:17:35;263.52;;;246.85;;
53879;SDS011;39791;53.184;5.486;2023-04-25T12:20:06;249.32;;;233.10;;
53879;SDS011;39791;53.184;5.486;2023-04-25T12:22:33;296.00;;;277.00;;
53879;SDS011;39791;53.184;5.486;2023-04-25T12:24:59;263.55;;;246.70;;
53879;SDS011;39791;53.184;5.486;2023-04-25T12:27:25;254.35;;;238.20;;
53879;SDS011;39791;53.184;5.486;2023-04-25T12:29:52;219.43;;;203.82;;
53879;SDS011;39791;53.184;5.486;2023-04-25T12:32:19;137.32;;;128.63;;
53879;SDS011;39791;53.184;5.486;2023-04-25T12:34:45;210.32;;;196.75;;
53879;SDS011;39791;53.184;5.486;2023-04-25T12:37:11;213.82;;;200.95;;
53879;SDS011;39791;53.184;5.486;2023-04-25T12:39:37;246.40;;;230.35;;
53879;SDS011;39791;53.184;5.486;2023-04-25T12:42:02;255.25;;;239.43;;
53879;SDS011;39791;53.184;5.486;2023-04-25T12:44:28;292.20;;;274.08;;
53879;SDS011;39791;53.184;5.486;2023-04-25T12:46:54;307.65;;;288.00;;
53879;SDS011;39791;53.184;5.486;2023-04-25T12:49:20;337.27;;;316.00;;
53879;SDS011;39791;53.184;5.486;2023-04-25T12:51:45;348.20;;;325.77;;
53879;SDS011;39791;53.184;5.486;2023-04-25T12:54:11;312.73;;;292.38;;
53879;SDS011;39791;53.184;5.486;2023-04-25T12:56:37;370.05;;;345.85;;
53879;SDS011;39791;53.184;5.486;2023-04-25T12:59:03;316.58;;;296.50;;
53879;SDS011;39791;53.184;5.486;2023-04-25T13:01:29;261.02;;;244.15;;
53879;SDS011;39791;53.184;5.486;2023-04-25T13:03:55;241.55;;;225.68;;
53879;SDS011;39791;53.184;5.486;2023-04-25T13:06:20;174.40;;;162.10;;
53879;SDS011;39791;53.184;5.486;2023-04-25T13:08:47;182.30;;;170.05;;
53879;SDS011;39791;53.184;5.486;2023-04-25T13:11:12;63.67;;;57.80;;
53879;SDS011;39791;53.184;5.486;2023-04-25T13:13:39;243.98;;;228.32;;
53879;SDS011;39791;53.184;5.486;2023-04-25T13:16:06;124.97;;;115.18;;
53879;SDS011;39791;53.184;5.486;2023-04-25T13:18:32;275.88;;;258.80;;
53879;SDS011;39791;53.184;5.486;2023-04-25T13:20:58;245.43;;;230.18;;
53879;SDS011;39791;53.184;5.486;2023-04-25T13:23:25;278.65;;;261.23;;
53879;SDS011;39791;53.184;5.486;2023-04-25T13:25:52;248.88;;;233.70;;
53879;SDS011;39791;53.184;5.486;2023-04-25T13:28:18;273.95;;;256.85;;
53879;SDS011;39791;53.184;5.486;2023-04-25T13:30:44;283.88;;;265.58;;
53879;SDS011;39791;53.184;5.486;2023-04-25T13:33:10;238.15;;;222.57;;
53879;SDS011;39791;53.184;5.486;2023-04-25T13:35:37;231.30;;;216.25;;
53879;SDS011;39791;53.184;5.486;2023-04-25T13:38:03;249.20;;;233.48;;
53879;SDS011;39791;53.184;5.486;2023-04-25T13:40:29;230.38;;;215.70;;
53879;SDS011;39791;53.184;5.486;2023-04-25T13:42:55;202.07;;;189.20;;
53879;SDS011;39791;53.184;5.486;2023-04-25T13:45:21;119.15;;;110.75;;
53879;SDS011;39791;53.184;5.486;2023-04-25T13:47:47;193.32;;;180.82;;
53879;SDS011;39791;53.184;5.486;2023-04-25T13:50:13;80.70;;;74.22;;
53879;SDS011;39791;53.184;5.486;2023-04-25T13:52:39;262.38;;;245.90;;
53879;SDS011;39791;53.184;5.486;2023-04-25T13:55:05;133.50;;;124.40;;
53879;SDS011;39791;53.184;5.486;2023-04-25T13:57:32;189.15;;;177.10;;
53879;SDS011;39791;53.184;5.486;2023-04-25T13:59:58;254.65;;;239.55;;
53879;SDS011;39791;53.184;5.486;2023-04-25T14:02:24;311.35;;;292.35;;
53879;SDS011;39791;53.184;5.486;2023-04-25T14:04:50;259.13;;;242.35;;
53879;SDS011;39791;53.184;5.486;2023-04-25T14:07:15;261.95;;;245.48;;
53879;SDS011;39791;53.184;5.486;2023-04-25T14:09:41;311.40;;;291.58;;